createdAt,value
2023-10-26T00:01:34.253Z,43.03
2023-10-26T00:04:02.414Z,39.30
2023-10-26T00:06:30.999Z,53.43
2023-10-26T00:08:59.771Z,33.47
2023-10-26T00:11:28.338Z,41.17
2023-10-26T00:13:56.809Z,34.70
2023-10-26T00:16:26.610Z,34.27
2023-10-26T00:18:55.122Z,33.17
2023-10-26T00:21:23.577Z,27.57
2023-10-26T00:23:52.230Z,30.93
2023-10-26T00:26:20.696Z,26.10
2023-10-26T00:28:49.365Z,28.20
2023-10-26T00:31:17.465Z,30.10
2023-10-26T00:33:47.057Z,30.27
2023-10-26T00:36:15.840Z,30.33
2023-10-26T00:38:44.279Z,32.87
2023-10-26T00:41:12.533Z,24.70
2023-10-26T00:43:40.982Z,24.53
2023-10-26T00:46:11.913Z,26.43
2023-10-26T00:48:41.015Z,28.60
2023-10-26T00:51:10.818Z,25.67
2023-10-26T00:53:42.227Z,22.57
2023-10-26T00:56:13.072Z,26.03
2023-10-26T00:58:41.778Z,23.10
2023-10-26T01:01:10.568Z,21.57
2023-10-26T01:03:40.106Z,24.30
2023-10-26T01:06:09.825Z,22.53
2023-10-26T01:08:39.964Z,24.80
2023-10-26T01:11:08.721Z,25.53
2023-10-26T01:13:37.371Z,20.30
2023-10-26T01:16:06.069Z,24.67
2023-10-26T01:18:34.709Z,26.03
2023-10-26T01:21:03.279Z,22.60
2023-10-26T01:23:32.800Z,22.20
2023-10-26T01:26:01.405Z,21.10
2023-10-26T01:28:29.911Z,18.10
2023-10-26T01:30:59.086Z,19.77
2023-10-26T01:33:27.633Z,20.93
2023-10-26T01:35:56.228Z,18.20
2023-10-26T01:38:24.642Z,17.23
2023-10-26T01:40:54.381Z,19.13
2023-10-26T01:43:22.436Z,14.20
2023-10-26T01:45:50.800Z,22.00
2023-10-26T01:48:19.490Z,17.90
2023-10-26T01:50:47.955Z,17.77
2023-10-26T01:53:16.337Z,20.00
2023-10-26T01:55:44.494Z,16.57
2023-10-26T01:58:14.306Z,19.37
2023-10-26T02:00:42.721Z,18.63
2023-10-26T02:03:11.298Z,19.70
2023-10-26T02:05:39.821Z,22.33
2023-10-26T02:08:08.191Z,17.37
2023-10-26T02:10:36.824Z,17.67
2023-10-26T02:13:05.207Z,20.07
2023-10-26T02:15:35.157Z,19.40
2023-10-26T02:18:04.060Z,19.50
2023-10-26T02:20:32.482Z,16.40
2023-10-26T02:23:01.034Z,19.40
2023-10-26T02:25:29.570Z,21.60
2023-10-26T02:27:58.456Z,17.60
2023-10-26T02:30:27.010Z,18.43
2023-10-26T02:32:56.900Z,18.93
2023-10-26T02:35:25.366Z,17.00
2023-10-26T02:37:54.129Z,15.83
2023-10-26T02:40:22.585Z,14.97
2023-10-26T02:42:50.706Z,16.63
2023-10-26T02:45:18.902Z,16.03
2023-10-26T02:47:47.434Z,17.17
2023-10-26T02:50:17.083Z,15.83
2023-10-26T02:52:45.273Z,16.93
2023-10-26T02:55:13.695Z,17.93
2023-10-26T02:57:42.146Z,18.90
2023-10-26T03:00:13.358Z,18.80
2023-10-26T03:02:41.916Z,23.03
2023-10-26T03:05:10.981Z,21.37
2023-10-26T03:07:40.373Z,16.97
2023-10-26T03:10:09.232Z,19.10
2023-10-26T03:12:37.665Z,27.43
2023-10-26T03:15:06.314Z,22.27
2023-10-26T03:17:34.750Z,22.30
2023-10-26T03:20:03.211Z,22.00
2023-10-26T03:22:31.390Z,24.33
2023-10-26T03:25:01.079Z,21.63
2023-10-26T03:27:29.527Z,19.10
2023-10-26T03:29:58.374Z,22.30
2023-10-26T03:32:26.793Z,24.63
2023-10-26T03:34:55.295Z,19.50
2023-10-26T03:37:23.684Z,19.67
2023-10-26T03:39:52.102Z,16.87
2023-10-26T03:42:21.680Z,19.80
2023-10-26T03:44:50.149Z,19.10
2023-10-26T03:47:19.946Z,15.90
2023-10-26T03:49:52.562Z,13.17
2023-10-26T03:52:21.507Z,15.60
2023-10-26T03:54:49.898Z,16.40
2023-10-26T03:57:18.381Z,16.03
2023-10-26T03:59:47.805Z,17.33
2023-10-26T04:02:16.221Z,15.30
2023-10-26T04:04:44.819Z,16.77
2023-10-26T04:07:13.497Z,17.23
2023-10-26T04:09:42.058Z,17.07
2023-10-26T04:12:10.708Z,15.77
2023-10-26T04:14:39.310Z,14.57
2023-10-26T04:17:09.862Z,15.77
2023-10-26T04:19:38.260Z,14.57
2023-10-26T04:22:07.112Z,14.27
2023-10-26T04:24:35.922Z,13.73
2023-10-26T04:27:05.026Z,13.57
2023-10-26T04:29:33.587Z,16.33
2023-10-26T04:32:01.958Z,16.37
2023-10-26T04:34:32.618Z,13.87
2023-10-26T04:37:01.246Z,17.50
2023-10-26T04:39:29.802Z,13.87
2023-10-26T04:41:57.983Z,13.47
2023-10-26T04:44:26.207Z,14.80
2023-10-26T04:46:54.285Z,13.00
2023-10-26T04:49:22.737Z,14.83
2023-10-26T04:51:52.186Z,13.80
2023-10-26T04:54:20.616Z,14.07
2023-10-26T04:56:49.106Z,17.27
2023-10-26T04:59:17.546Z,15.23
2023-10-26T05:01:46.091Z,15.63
2023-10-26T05:04:14.350Z,15.67
2023-10-26T05:06:42.950Z,15.07
2023-10-26T05:09:12.604Z,14.20
2023-10-26T05:11:42.422Z,15.97
2023-10-26T05:14:11.227Z,15.37
2023-10-26T05:16:39.729Z,16.27
2023-10-26T05:19:08.192Z,18.63
2023-10-26T05:21:36.863Z,17.80
2023-10-26T05:24:05.583Z,14.37
2023-10-26T05:26:35.125Z,13.90
2023-10-26T05:29:05.308Z,19.07
2023-10-26T05:31:33.869Z,18.10
2023-10-26T05:34:02.534Z,15.93
2023-10-26T05:36:31.039Z,17.50
2023-10-26T05:39:00.157Z,17.13
2023-10-26T05:41:28.872Z,19.00
2023-10-26T05:43:58.539Z,21.33
2023-10-26T05:46:27.139Z,23.53
2023-10-26T05:48:55.696Z,21.40
2023-10-26T05:51:24.156Z,21.83
2023-10-26T05:53:52.551Z,22.13
2023-10-26T05:56:20.938Z,21.80
2023-10-26T05:58:51.537Z,22.47
2023-10-26T06:01:21.199Z,23.70
2023-10-26T06:03:49.646Z,28.47
2023-10-26T06:06:18.178Z,20.07
2023-10-26T06:08:47.699Z,22.90
2023-10-26T06:11:17.530Z,20.43
2023-10-26T06:13:48.109Z,23.70
2023-10-26T06:16:18.091Z,18.60
2023-10-26T06:18:47.642Z,20.07
2023-10-26T06:21:16.060Z,19.70
2023-10-26T06:23:45.649Z,18.27
2023-10-26T06:26:14.032Z,19.13
2023-10-26T06:28:42.399Z,19.77
2023-10-26T06:31:11.244Z,18.23
2023-10-26T06:33:39.843Z,21.57
2023-10-26T06:36:11.320Z,16.73
2023-10-26T06:38:40.344Z,20.63
2023-10-26T06:41:10.020Z,16.00
2023-10-26T06:43:38.730Z,16.53
2023-10-26T06:46:07.562Z,15.13
2023-10-26T06:48:36.232Z,20.57
2023-10-26T06:51:07.075Z,17.70
2023-10-26T06:53:37.637Z,17.03
2023-10-26T06:56:12.478Z,16.70
2023-10-26T06:58:43.471Z,17.17
2023-10-26T07:01:20.701Z,19.90
2023-10-26T07:03:50.204Z,19.03
2023-10-26T07:06:18.751Z,20.23
2023-10-26T07:08:50.391Z,16.13
2023-10-26T07:11:24.602Z,18.57
2023-10-26T07:13:53.209Z,18.67
2023-10-26T07:16:21.672Z,16.10
2023-10-26T07:18:50.460Z,18.33
2023-10-26T07:21:19.299Z,23.83
2023-10-26T07:23:49.058Z,21.73
2023-10-26T07:26:20.664Z,21.63
2023-10-26T07:28:49.263Z,21.07
2023-10-26T07:31:22.112Z,19.47
2023-10-26T07:33:51.299Z,23.57
2023-10-26T07:36:20.097Z,19.60
2023-10-26T07:39:46.495Z,19.23
2023-10-26T07:42:08.094Z,18.43
2023-10-26T07:44:27.530Z,20.50
2023-10-26T07:46:56.138Z,26.63
2023-10-26T07:49:24.470Z,23.77
2023-10-26T07:51:52.707Z,21.37
2023-10-26T07:54:22.148Z,23.40
2023-10-26T07:56:50.299Z,23.93
2023-10-26T07:59:18.906Z,22.70
2023-10-26T08:01:48.902Z,22.57
2023-10-26T08:04:17.715Z,22.03
2023-10-26T08:06:46.238Z,26.23
2023-10-26T08:09:14.980Z,22.50
2023-10-26T08:11:44.542Z,26.23
2023-10-26T08:14:34.554Z,24.13
2023-10-26T08:17:01.111Z,25.00
2023-10-26T08:19:29.837Z,22.20
2023-10-26T08:21:58.271Z,24.50
2023-10-26T08:24:27.153Z,23.07
2023-10-26T08:26:56.745Z,26.10
2023-10-26T08:29:28.914Z,28.53
2023-10-26T08:31:58.267Z,25.57
2023-10-26T08:34:26.844Z,25.33
2023-10-26T08:37:13.060Z,26.83
2023-10-26T08:39:44.637Z,28.17
2023-10-26T08:42:16.798Z,22.90
2023-10-26T08:44:45.925Z,28.23
2023-10-26T08:47:18.349Z,25.20
2023-10-26T08:49:55.895Z,27.33
2023-10-26T08:52:28.433Z,26.03
2023-10-26T08:54:57.416Z,23.50
2023-10-26T08:57:27.213Z,23.83
2023-10-26T08:59:55.648Z,25.87
2023-10-26T09:02:23.860Z,34.13
2023-10-26T09:05:05.273Z,28.53
2023-10-26T09:07:33.751Z,26.87
2023-10-26T09:10:02.218Z,26.73
2023-10-26T09:12:31.718Z,28.30
2023-10-26T09:15:00.886Z,26.50
2023-10-26T09:17:30.160Z,31.47
2023-10-26T09:19:58.880Z,29.73
2023-10-26T09:22:39.414Z,28.80
2023-10-26T09:25:12.070Z,28.60
2023-10-26T09:27:42.759Z,26.27
2023-10-26T09:30:25.208Z,27.37
2023-10-26T09:32:53.832Z,30.00
2023-10-26T09:35:29.061Z,24.13
2023-10-26T09:37:58.478Z,24.40
2023-10-26T09:40:28.806Z,25.37
2023-10-26T09:42:59.511Z,24.63
2023-10-26T09:45:28.595Z,22.83
2023-10-26T09:47:57.623Z,20.53
2023-10-26T09:50:26.490Z,20.50
2023-10-26T09:52:56.544Z,18.47
2023-10-26T09:55:25.215Z,17.03
2023-10-26T09:57:57.455Z,23.07
2023-10-26T10:00:33.999Z,20.57
2023-10-26T10:03:12.508Z,19.47
2023-10-26T10:05:41.236Z,20.40
2023-10-26T10:08:09.845Z,25.57
2023-10-26T10:10:38.420Z,28.97
2023-10-26T10:13:07.183Z,29.27
2023-10-26T10:15:42.443Z,24.60
2023-10-26T10:18:11.698Z,24.83
2023-10-26T10:20:41.685Z,29.00
2023-10-26T10:23:10.469Z,28.37
2023-10-26T10:26:19.774Z,27.67
2023-10-26T10:28:52.453Z,33.30
2023-10-26T10:31:44.536Z,28.13
2023-10-26T10:34:17.337Z,27.53
2023-10-26T10:37:11.229Z,33.10
2023-10-26T10:39:39.838Z,32.17
2023-10-26T10:42:12.910Z,36.37
2023-10-26T10:44:43.516Z,25.50
2023-10-26T10:47:13.164Z,32.77
2023-10-26T10:49:41.490Z,34.17
2023-10-26T10:52:16.458Z,36.83
2023-10-26T10:55:02.707Z,37.53
2023-10-26T10:57:33.631Z,47.20
2023-10-26T11:00:01.811Z,45.03
2023-10-26T11:02:31.858Z,52.03
2023-10-26T11:05:15.876Z,52.30
2023-10-26T11:07:48.221Z,61.27
2023-10-26T11:10:16.759Z,53.80
2023-10-26T11:12:52.347Z,57.63
2023-10-26T11:15:20.568Z,56.07
2023-10-26T11:17:50.210Z,59.00
2023-10-26T11:20:38.466Z,49.83
2023-10-26T11:23:07.084Z,49.07
2023-10-26T11:25:35.444Z,51.83
2023-10-26T11:28:04.203Z,59.77
2023-10-26T11:30:32.959Z,53.77
2023-10-26T11:33:08.330Z,47.23
2023-10-26T11:35:44.735Z,49.67
2023-10-26T11:38:13.102Z,52.93
2023-10-26T11:40:44.697Z,50.60
2023-10-26T11:43:12.911Z,54.60
2023-10-26T11:45:49.957Z,57.93
2023-10-26T11:48:30.436Z,57.13
2023-10-26T11:50:58.865Z,43.47
2023-10-26T11:53:27.674Z,44.50
2023-10-26T11:55:56.289Z,41.27
2023-10-26T11:58:24.790Z,42.90
2023-10-26T12:00:53.375Z,38.10
2023-10-26T12:03:22.492Z,39.73
2023-10-26T12:05:52.077Z,35.60
2023-10-26T12:08:20.504Z,32.60
2023-10-26T12:10:48.906Z,29.20
2023-10-26T12:13:16.959Z,35.97
2023-10-26T12:15:45.122Z,34.33
2023-10-26T12:18:13.568Z,30.43
2023-10-26T12:20:42.003Z,32.07
2023-10-26T12:23:11.443Z,33.83
2023-10-26T12:25:41.405Z,32.20
2023-10-26T12:28:19.580Z,33.23
2023-10-26T12:30:51.362Z,29.97
2023-10-26T12:33:20.064Z,28.30
2023-10-26T12:35:48.723Z,29.47
2023-10-26T12:38:20.719Z,24.00
2023-10-26T12:40:49.324Z,25.93
2023-10-26T12:43:17.899Z,21.37
2023-10-26T12:45:46.277Z,24.53
2023-10-26T12:48:14.788Z,23.63
2023-10-26T12:50:42.931Z,24.13
2023-10-26T12:53:11.504Z,23.33
2023-10-26T12:55:41.116Z,20.23
2023-10-26T12:58:09.516Z,20.97
2023-10-26T13:00:38.079Z,22.83
2023-10-26T13:03:06.785Z,23.43
2023-10-26T13:05:35.164Z,23.63
2023-10-26T13:08:04.106Z,21.00
2023-10-26T13:10:32.741Z,19.57
2023-10-26T13:13:04.805Z,20.43
2023-10-26T13:15:33.963Z,17.67
2023-10-26T13:18:02.952Z,20.00
2023-10-26T13:20:31.564Z,15.83
2023-10-26T13:23:00.576Z,15.43
2023-10-26T13:25:29.220Z,16.53
2023-10-26T13:27:58.917Z,18.50
2023-10-26T13:30:28.688Z,16.27
2023-10-26T13:32:57.283Z,16.53
2023-10-26T13:35:30.756Z,16.30
2023-10-26T13:37:58.937Z,16.57
2023-10-26T13:40:27.192Z,20.30
2023-10-26T13:42:55.746Z,16.90
2023-10-26T13:45:24.774Z,17.13
2023-10-26T13:47:55.416Z,17.80
2023-10-26T13:50:24.004Z,13.53
2023-10-26T13:52:52.425Z,13.23
2023-10-26T13:55:20.792Z,14.23
2023-10-26T13:57:48.985Z,15.20
2023-10-26T14:00:17.745Z,15.73
2023-10-26T14:02:46.536Z,14.70
2023-10-26T14:05:30.096Z,14.97
2023-10-26T14:07:59.624Z,12.80
2023-10-26T14:10:28.044Z,11.37
2023-10-26T14:12:56.424Z,13.17
2023-10-26T14:15:25.191Z,14.20
2023-10-26T14:17:53.345Z,13.70
2023-10-26T14:20:22.827Z,13.87
2023-10-26T14:22:51.409Z,16.15
2023-10-26T14:25:19.938Z,13.10
2023-10-26T14:27:48.327Z,16.85
2023-10-26T14:30:16.813Z,18.17
2023-10-26T14:32:45.221Z,19.88
2023-10-26T14:35:14.629Z,19.67
2023-10-26T14:37:50.380Z,15.60
2023-10-26T14:40:19.304Z,16.00
2023-10-26T14:42:48.455Z,19.67
2023-10-26T14:45:17.003Z,15.50
2023-10-26T14:47:45.494Z,15.50
2023-10-26T14:50:13.718Z,15.47
2023-10-26T14:52:43.368Z,14.93
2023-10-26T14:55:11.652Z,19.13
2023-10-26T14:57:39.784Z,15.67
2023-10-26T15:00:09.494Z,14.37
2023-10-26T15:02:37.978Z,16.83
2023-10-26T15:05:10.128Z,18.10
2023-10-26T15:07:38.734Z,19.50
2023-10-26T15:10:23.608Z,15.23
2023-10-26T15:12:54.360Z,13.30
2023-10-26T15:15:22.928Z,18.20
2023-10-26T15:17:52.313Z,14.83
2023-10-26T15:20:20.590Z,17.93
2023-10-26T15:22:48.887Z,21.87
2023-10-26T15:25:18.489Z,17.37
2023-10-26T15:27:46.646Z,18.27
2023-10-26T15:30:16.900Z,17.10
2023-10-26T15:32:45.126Z,17.73
2023-10-26T15:35:13.587Z,16.50
2023-10-26T15:37:41.962Z,18.57
2023-10-26T15:40:13.865Z,18.97
2023-10-26T15:42:43.423Z,17.87
2023-10-26T15:45:12.923Z,20.17
2023-10-26T15:47:41.352Z,17.73
2023-10-26T15:50:10.352Z,19.53
2023-10-26T15:52:39.578Z,15.83
2023-10-26T15:55:08.495Z,16.50
2023-10-26T15:57:38.205Z,17.23
2023-10-26T16:00:10.761Z,22.17
2023-10-26T16:02:39.538Z,19.83
2023-10-26T16:05:08.365Z,19.83
2023-10-26T16:07:37.829Z,19.83
2023-10-26T16:10:06.584Z,25.77
2023-10-26T16:12:35.149Z,25.20
2023-10-26T16:15:03.684Z,19.27
2023-10-26T16:17:37.476Z,21.30
2023-10-26T16:20:06.153Z,20.53
2023-10-26T16:22:34.665Z,23.63
2023-10-26T16:25:04.735Z,17.50
2023-10-26T16:27:34.452Z,19.07
2023-10-26T16:30:02.935Z,20.30
2023-10-26T16:32:33.252Z,16.17
2023-10-26T16:35:01.757Z,14.20
2023-10-26T16:37:30.267Z,19.93
2023-10-26T16:39:58.837Z,16.83
2023-10-26T16:42:26.917Z,19.90
2023-10-26T16:44:55.408Z,26.93
2023-10-26T16:47:23.882Z,22.87
2023-10-26T16:49:53.457Z,12.87
2023-10-26T16:52:21.912Z,19.53
2023-10-26T16:54:50.303Z,20.17
2023-10-26T16:57:18.679Z,20.93
2023-10-26T16:59:48.876Z,17.17
2023-10-26T17:02:17.386Z,14.77
2023-10-26T17:04:47.057Z,17.83
2023-10-26T17:07:16.478Z,13.63
2023-10-26T17:09:44.998Z,20.03
2023-10-26T17:12:13.502Z,17.07
2023-10-26T17:14:41.638Z,12.83
2023-10-26T17:17:10.049Z,10.20
2023-10-26T17:19:39.223Z,17.27
2023-10-26T17:22:07.427Z,12.43
2023-10-26T17:24:38.649Z,17.17
2023-10-26T17:27:07.122Z,14.30
2023-10-26T17:29:36.079Z,21.27
2023-10-26T17:32:04.387Z,24.23
2023-10-26T17:34:34.170Z,19.30
2023-10-26T17:37:04.381Z,18.50
2023-10-26T17:39:32.870Z,19.13
2023-10-26T17:42:02.372Z,22.50
2023-10-26T17:44:31.625Z,22.33
2023-10-26T17:47:00.099Z,21.70
2023-10-26T17:49:28.526Z,24.20
2023-10-26T17:51:56.651Z,20.27
2023-10-26T17:54:25.113Z,20.87
2023-10-26T17:56:53.492Z,26.30
2023-10-26T17:59:23.653Z,26.67
2023-10-26T18:01:51.965Z,30.87
2023-10-26T18:04:20.392Z,29.37
2023-10-26T18:06:48.910Z,29.57
2023-10-26T18:09:17.607Z,27.93
2023-10-26T18:11:46.015Z,30.17
2023-10-26T18:14:14.106Z,31.47
2023-10-26T18:16:43.703Z,31.53
2023-10-26T18:19:12.189Z,23.57
2023-10-26T18:21:40.613Z,24.60
2023-10-26T18:24:09.871Z,29.20
2023-10-26T18:26:40.176Z,26.67
2023-10-26T18:29:08.767Z,34.70
2023-10-26T18:31:36.899Z,29.10
2023-10-26T18:34:06.566Z,27.07
2023-10-26T18:36:35.714Z,27.77
2023-10-26T18:39:04.385Z,26.50
2023-10-26T18:41:33.253Z,30.57
2023-10-26T18:44:01.996Z,32.27
2023-10-26T18:46:30.710Z,38.93
2023-10-26T18:48:58.940Z,33.60
2023-10-26T18:51:28.583Z,31.97
2023-10-26T18:53:57.734Z,34.50
2023-10-26T18:56:26.162Z,28.13
2023-10-26T18:58:56.199Z,33.63
2023-10-26T19:01:26.985Z,29.27
2023-10-26T19:06:28.528Z,30.93
2023-10-26T19:08:57.086Z,26.17
2023-10-26T19:11:25.609Z,31.73
2023-10-26T19:13:54.357Z,31.07
2023-10-26T19:16:23.069Z,32.90
2023-10-26T19:18:51.646Z,31.70
2023-10-26T19:21:20.130Z,30.63
2023-10-26T19:23:49.968Z,31.67
2023-10-26T19:26:18.144Z,39.73
2023-10-26T19:28:46.541Z,29.27
2023-10-26T19:31:15.076Z,30.37
2023-10-26T19:33:46.260Z,30.13
2023-10-26T19:36:14.756Z,26.07
2023-10-26T19:38:43.155Z,26.20
2023-10-26T19:41:16.616Z,24.70
2023-10-26T19:43:45.130Z,24.40
2023-10-26T19:46:13.876Z,25.27
2023-10-26T19:48:42.435Z,28.80
2023-10-26T19:51:10.834Z,27.73
2023-10-26T19:53:39.239Z,28.30
2023-10-26T19:56:08.549Z,31.90
2023-10-26T19:58:38.290Z,31.90
2023-10-26T20:01:07.697Z,27.80
2023-10-26T20:03:36.236Z,33.53
2023-10-26T20:06:08.049Z,37.00
2023-10-26T20:08:37.557Z,34.73
2023-10-26T20:11:06.547Z,30.33
2023-10-26T20:13:35.261Z,38.00
2023-10-26T20:16:05.564Z,28.87
2023-10-26T20:18:39.692Z,31.43
2023-10-26T20:21:08.368Z,39.70
2023-10-26T20:23:36.838Z,30.57
2023-10-26T20:26:05.880Z,37.37
2023-10-26T20:28:34.420Z,36.10
2023-10-26T20:31:04.740Z,39.83
2023-10-26T20:33:33.265Z,35.20
2023-10-26T20:36:01.616Z,42.83
2023-10-26T20:38:30.094Z,39.40
2023-10-26T20:40:58.786Z,35.07
2023-10-26T20:43:27.021Z,36.67
2023-10-26T20:45:58.972Z,39.70
2023-10-26T20:48:30.048Z,30.07
2023-10-26T20:50:59.968Z,29.93
2023-10-26T20:53:29.315Z,33.67
2023-10-26T20:56:00.544Z,35.40
2023-10-26T20:58:29.061Z,34.33
2023-10-26T21:00:57.240Z,41.43
2023-10-26T21:03:25.683Z,31.83
2023-10-26T21:05:55.577Z,33.70
2023-10-26T21:08:24.122Z,32.50
2023-10-26T21:10:52.264Z,34.67
2023-10-26T21:13:20.931Z,30.33
2023-10-26T21:15:49.221Z,31.47
2023-10-26T21:18:17.822Z,33.50
2023-10-26T21:20:46.224Z,33.10
2023-10-26T21:23:15.905Z,34.67
2023-10-26T21:25:44.899Z,36.10
2023-10-26T21:28:13.411Z,34.80
2023-10-26T21:30:42.024Z,35.13
2023-10-26T21:33:10.457Z,37.40
2023-10-26T21:35:39.653Z,34.00
2023-10-26T21:38:08.544Z,35.17
2023-10-26T21:40:39.259Z,30.80
2023-10-26T21:43:07.686Z,31.70
2023-10-26T21:45:37.002Z,31.33
2023-10-26T21:48:05.562Z,28.67
2023-10-26T21:50:34.292Z,32.00
2023-10-26T21:53:02.656Z,34.93
2023-10-26T21:55:31.905Z,31.57
2023-10-26T21:58:01.807Z,34.73
2023-10-26T22:00:30.331Z,31.37
2023-10-26T22:02:59.703Z,33.37
2023-10-26T22:05:28.302Z,37.60
2023-10-26T22:07:56.669Z,32.40
2023-10-26T22:10:25.064Z,30.13
2023-10-26T22:12:53.491Z,36.73
2023-10-26T22:15:23.397Z,26.87
2023-10-26T22:17:51.983Z,36.30
2023-10-26T22:20:20.421Z,31.40
2023-10-26T22:22:48.928Z,28.10
2023-10-26T22:25:17.385Z,27.83
2023-10-26T22:27:45.777Z,29.73
2023-10-26T22:30:14.618Z,31.20
2023-10-26T22:32:45.066Z,29.23
2023-10-26T22:35:13.613Z,32.33
2023-10-26T22:37:42.066Z,30.97
2023-10-26T22:40:10.998Z,27.77
2023-10-26T22:42:39.484Z,24.10
2023-10-26T22:45:08.766Z,30.27
2023-10-26T22:47:37.441Z,27.67
2023-10-26T22:50:08.449Z,27.47
2023-10-26T22:52:36.965Z,26.07
2023-10-26T22:55:05.597Z,26.37
2023-10-26T22:57:33.844Z,24.77
2023-10-26T23:00:01.932Z,29.40
2023-10-26T23:02:30.306Z,28.27
2023-10-26T23:05:00.072Z,27.53
2023-10-26T23:07:29.585Z,32.53
2023-10-26T23:09:57.865Z,27.17
2023-10-26T23:12:26.261Z,26.53
2023-10-26T23:14:54.654Z,25.27
2023-10-26T23:17:23.067Z,26.63
2023-10-26T23:19:52.662Z,27.10
2023-10-26T23:22:21.215Z,22.03
2023-10-26T23:24:50.794Z,19.87
2023-10-26T23:27:19.029Z,25.50
2023-10-26T23:29:47.499Z,21.97
2023-10-26T23:32:15.988Z,23.40
2023-10-26T23:34:44.647Z,24.77
2023-10-26T23:37:14.702Z,21.10
2023-10-26T23:39:42.885Z,22.70
2023-10-26T23:42:12.553Z,20.93
2023-10-26T23:44:40.942Z,17.87
2023-10-26T23:47:09.505Z,26.83
2023-10-26T23:49:37.965Z,21.60
2023-10-26T23:52:07.121Z,25.40
2023-10-26T23:54:35.204Z,23.93
2023-10-26T23:57:03.343Z,17.70
2023-10-26T23:59:32.831Z,22.00
